地図

経路データ

SID SEASON NUMBER BASIN SUBBASIN NAME ISO_TIME NATURE LAT LON WMO_WIND WMO_PRES WMO_AGENCY TRACK_TYPE DIST2LAND LANDFALL IFLAG USA_AGENCY USA_ATCF_ID USA_LAT USA_LON USA_RECORD USA_STATUS USA_WIND USA_PRES USA_SSHS USA_R34_NE USA_R34_SE USA_R34_SW USA_R34_NW USA_R50_NE USA_R50_SE USA_R50_SW USA_R50_NW USA_R64_NE USA_R64_SE USA_R64_SW USA_R64_NW USA_POCI USA_ROCI USA_RMW USA_EYE TOKYO_LAT TOKYO_LON TOKYO_GRADE TOKYO_WIND TOKYO_PRES TOKYO_R50_DIR TOKYO_R50_LONG TOKYO_R50_SHORT TOKYO_R30_DIR TOKYO_R30_LONG TOKYO_R30_SHORT TOKYO_LAND CMA_LAT CMA_LON CMA_CAT CMA_WIND CMA_PRES HKO_LAT HKO_LON HKO_CAT HKO_WIND HKO_PRES NEWDELHI_LAT NEWDELHI_LON NEWDELHI_GRADE NEWDELHI_WIND NEWDELHI_PRES NEWDELHI_CI NEWDELHI_DP NEWDELHI_POCI REUNION_LAT REUNION_LON REUNION_TYPE REUNION_WIND REUNION_PRES REUNION_TNUM REUNION_CI REUNION_RMW REUNION_R34_NE REUNION_R34_SE REUNION_R34_SW REUNION_R34_NW REUNION_R50_NE REUNION_R50_SE REUNION_R50_SW REUNION_R50_NW REUNION_R64_NE REUNION_R64_SE REUNION_R64_SW REUNION_R64_NW BOM_LAT BOM_LON BOM_TYPE BOM_WIND BOM_PRES BOM_TNUM BOM_CI BOM_RMW BOM_R34_NE BOM_R34_SE BOM_R34_SW BOM_R34_NW BOM_R50_NE BOM_R50_SE BOM_R50_SW BOM_R50_NW BOM_R64_NE BOM_R64_SE BOM_R64_SW BOM_R64_NW BOM_ROCI BOM_POCI BOM_EYE BOM_POS_METHOD BOM_PRES_METHOD NADI_LAT NADI_LON NADI_CAT NADI_WIND NADI_PRES WELLINGTON_LAT WELLINGTON_LON WELLINGTON_WIND WELLINGTON_PRES DS824_LAT DS824_LON DS824_STAGE DS824_WIND DS824_PRES TD9636_LAT TD9636_LON TD9636_STAGE TD9636_WIND TD9636_PRES TD9635_LAT TD9635_LON TD9635_WIND TD9635_PRES TD9635_ROCI NEUMANN_LAT NEUMANN_LON NEUMANN_CLASS NEUMANN_WIND NEUMANN_PRES MLC_LAT MLC_LON MLC_CLASS MLC_WIND MLC_PRES USA_GUST BOM_GUST BOM_GUST_PER REUNION_GUST REUNION_GUST_PER USA_SEAHGT USA_SEARAD_NE USA_SEARAD_SE USA_SEARAD_SW USA_SEARAD_NW STORM_SPEED STORM_DIR
1985158N10267 1985 41 EP MM BLANCA 1985-06-06 18:00:00 TS 10.2000 -92.8000 30 hurdat_epa main 445 445 O_________O___ hurdat_epa EP021985 10.2000 -92.8000 TD 30 -1 10.2000 -92.8000 1 30 7 275
1985158N10267 1985 41 EP MM BLANCA 1985-06-06 21:00:00 TS 10.2313 -93.1613 main 463 458 P_________P___ EP021985 10.2276 -93.1625 TD 30 -1 10.2425 -93.1576 1 30 7 278
1985158N10267 1985 41 EP MM BLANCA 1985-06-07 00:00:00 TS 10.3000 -93.5000 30 hurdat_epa main 468 464 O_________O___ hurdat_epa EP021985 10.3000 -93.5000 TD 30 -1 10.3000 -93.5000 1 30 7 287
1985158N10267 1985 41 EP MM BLANCA 1985-06-07 03:00:00 TS 10.4281 -93.8045 main 477 473 P_________P___ EP021985 10.4424 -93.8000 TD 32 -1 10.3851 -93.8179 1 31 7 295
1985158N10267 1985 41 EP MM BLANCA 1985-06-07 06:00:00 TS 10.5746 -94.1066 35 hurdat_epa main 474 474 O_________P___ hurdat_epa EP021985 10.6000 -94.1000 TS 35 0 10.4985 -94.1264 1 32 7 292
1985158N10267 1985 41 EP MM BLANCA 1985-06-07 09:00:00 TS 10.6787 -94.4324 main 483 483 P_________P___ EP021985 10.6924 -94.4276 TS 35 0 10.6376 -94.4467 1 33 7 288
1985158N10267 1985 41 EP MM BLANCA 1985-06-07 12:00:00 TS 10.8000 -94.8000 35 hurdat_epa main 501 498 O_________O___ hurdat_epa EP021985 10.8000 -94.8000 TS 35 0 10.8000 -94.8000 2 35 8 291
1985158N10267 1985 41 EP MM BLANCA 1985-06-07 15:00:00 TS 10.9844 -95.2277 main 509 502 P_________P___ EP021985 10.9850 -95.2350 TS 40 0 10.9825 -95.2059 2 42 10 294
1985158N10267 1985 41 EP MM BLANCA 1985-06-07 18:00:00 TS 11.1962 -95.6869 45 hurdat_epa main 502 473 O_________P___ hurdat_epa EP021985 11.2000 -95.7000 TS 45 0 11.1849 -95.6475 2 50 10 295
1985158N10267 1985 41 EP MM BLANCA 1985-06-07 21:00:00 TS 11.3986 -96.1358 main 473 447 P_________P___ EP021985 11.3999 -96.1426 TS 55 0 11.3949 -96.1153 2 57 10 294
1985158N10267 1985 41 EP MM BLANCA 1985-06-08 00:00:00 TS 11.6000 -96.6000 65 hurdat_epa main 447 427 O_________O___ hurdat_epa EP021985 11.6000 -96.6000 HU 65 1 11.6000 -96.6000 3 65 10 293
1985158N10267 1985 41 EP MM BLANCA 1985-06-08 03:00:00 TS 11.8021 -97.0918 main 428 414 P_________P___ EP021985 11.8075 -97.0925 HU 65 1 11.7862 -97.0898 3 65 11 292
1985158N10267 1985 41 EP MM BLANCA 1985-06-08 06:00:00 TS 11.9912 -97.5982 65 hurdat_epa main 417 412 O_________P___ hurdat_epa EP021985 12.0000 -97.6000 HU 65 1 11.9649 -97.5927 3 65 10 289
1985158N10267 1985 41 EP MM BLANCA 1985-06-08 09:00:00 TS 12.1465 -98.0999 main 424 413 P_________P___ EP021985 12.1499 -98.1001 HU 65 1 12.1361 -98.0992 3 65 10 287
1985158N10267 1985 41 EP MM BLANCA 1985-06-08 12:00:00 TS 12.3000 -98.6000 65 hurdat_epa main 423 412 O_________O___ hurdat_epa EP021985 12.3000 -98.6000 HU 65 1 12.3000 -98.6000 4 65 10 290
1985158N10267 1985 41 EP MM BLANCA 1985-06-08 15:00:00 TS 12.4969 -99.1072 main 416 409 P_________P___ EP021985 12.5074 -99.1074 HU 65 1 12.4653 -99.1066 4 65 11 291
1985158N10267 1985 41 EP MM BLANCA 1985-06-08 18:00:00 TS 12.6806 -99.6006 65 hurdat_epa main 417 416 O_________P___ hurdat_epa EP021985 12.7000 -99.6000 HU 65 1 12.6225 -99.6025 4 65 10 288
1985158N10267 1985 41 EP MM BLANCA 1985-06-08 21:00:00 TS 12.8033 -100.072 main 423 422 P_________P___ EP021985 12.8150 -100.073 HU 65 1 12.7685 -100.072 4 65 9 284
1985158N10267 1985 41 EP MM BLANCA 1985-06-09 00:00:00 TS 12.9000 -100.500 65 hurdat_epa main 432 427 O_________O___ hurdat_epa EP021985 12.9000 -100.500 HU 65 1 12.9000 -100.500 4 65 8 284
1985158N10267 1985 41 EP MM BLANCA 1985-06-09 03:00:00 TS 13.0034 -100.873 main 433 426 P_________P___ EP021985 12.9999 -100.873 HU 67 1 13.0140 -100.872 4 67 7 287
1985158N10267 1985 41 EP MM BLANCA 1985-06-09 06:00:00 TS 13.1036 -101.201 70 hurdat_epa main 434 427 O_________P___ hurdat_epa EP021985 13.1000 -101.200 HU 70 1 13.1145 -101.203 4 70 7 288
1985158N10267 1985 41 EP MM BLANCA 1985-06-09 09:00:00 TS 13.2075 -101.507 main 436 431 P_________P___ EP021985 13.2074 -101.508 HU 72 1 13.2078 -101.507 4 72 6 289
1985158N10267 1985 41 EP MM BLANCA 1985-06-09 12:00:00 TS 13.3000 -101.800 75 hurdat_epa main 442 442 O_________O___ hurdat_epa EP021985 13.3000 -101.800 HU 75 1 13.3000 -101.800 4 75 6 284
1985158N10267 1985 41 EP MM BLANCA 1985-06-09 15:00:00 TS 13.3548 -102.099 main 447 447 P_________P___ EP021985 13.3425 -102.100 HU 77 1 13.3916 -102.095 4 77 6 282
1985158N10267 1985 41 EP MM BLANCA 1985-06-09 18:00:00 TS 13.4212 -102.396 80 hurdat_epa main 458 451 O_________P___ hurdat_epa EP021985 13.4000 -102.400 HU 80 1 13.4846 -102.385 4 80 6 289
1985158N10267 1985 41 EP MM BLANCA 1985-06-09 21:00:00 TS 13.5532 -102.690 main 448 446 P_________P___ EP021985 13.5424 -102.692 HU 82 1 13.5853 -102.683 4 82 7 295
1985158N10267 1985 41 EP MM BLANCA 1985-06-10 00:00:00 TS 13.7000 -103.000 85 hurdat_epa main 451 451 O_________O___ hurdat_epa EP021985 13.7000 -103.000 HU 85 2 13.7000 -103.000 4 85 7 292
1985158N10267 1985 41 EP MM BLANCA 1985-06-10 03:00:00 TS 13.8022 -103.340 main 457 457 P_________P___ EP021985 13.7924 -103.335 HU 80 1 13.8315 -103.353 4 85 7 288
1985158N10267 1985 41 EP MM BLANCA 1985-06-10 06:00:00 TS 13.9194 -103.707 75 hurdat_epa main 471 461 O_________P___ hurdat_epa EP021985 13.9000 -103.700 HU 75 1 13.9775 -103.728 4 85 8 292
1985158N10267 1985 41 EP MM BLANCA 1985-06-10 09:00:00 TS 14.1030 -104.098 main 465 454 P_________P___ EP021985 14.0925 -104.092 HU 80 1 14.1346 -104.113 4 85 9 296
1985158N10267 1985 41 EP MM BLANCA 1985-06-10 12:00:00 TS 14.3000 -104.500 85 hurdat_epa main 458 450 O_________O___ hurdat_epa EP021985 14.3000 -104.500 HU 85 2 14.3000 -104.500 4 85 9 295
1985158N10267 1985 41 EP MM BLANCA 1985-06-10 15:00:00 TS 14.4574 -104.899 main 450 447 P_________P___ EP021985 14.4500 -104.908 HU 85 2 14.4798 -104.875 4 85 8 293
1985158N10267 1985 41 EP MM BLANCA 1985-06-10 18:00:00 TS 14.6162 -105.287 85 hurdat_epa main 456 450 O_________P___ hurdat_epa EP021985 14.6000 -105.300 HU 85 2 14.6648 -105.250 4 85 8 296
1985158N10267 1985 41 EP MM BLANCA 1985-06-10 21:00:00 TS 14.8105 -105.649 main 451 446 P_________P___ EP021985 14.7999 -105.658 HU 85 2 14.8423 -105.625 4 85 8 299
1985158N10267 1985 41 EP MM BLANCA 1985-06-11 00:00:00 TS 15.0000 -106.000 85 hurdat_epa main 455 452 O_________O___ hurdat_epa EP021985 15.0000 -106.000 HU 85 2 15.0000 -106.000 4 85 8 297
1985158N10267 1985 41 EP MM BLANCA 1985-06-11 03:00:00 TS 15.1648 -106.354 main 464 464 P_________P___ EP021985 15.1724 -106.343 HU 85 2 15.1418 -106.387 4 85 8 293
1985158N10267 1985 41 EP MM BLANCA 1985-06-11 06:00:00 TS 15.2900 -106.718 85 hurdat_epa main 478 478 O_________P___ hurdat_epa EP021985 15.3000 -106.700 HU 85 2 15.2600 -106.772 4 85 8 285
1985158N10267 1985 41 EP MM BLANCA 1985-06-11 09:00:00 TS 15.3608 -107.112 main 490 490 P_________P___ EP021985 15.3650 -107.100 HU 85 2 15.3481 -107.146 4 85 8 278
1985158N10267 1985 41 EP MM BLANCA 1985-06-11 12:00:00 TS 15.4000 -107.500 85 hurdat_epa main 512 512 O_________O___ hurdat_epa EP021985 15.4000 -107.500 HU 85 2 15.4000 -107.500 4 85 7 277
1985158N10267 1985 41 EP MM BLANCA 1985-06-11 15:00:00 TS 15.4530 -107.860 main 528 528 P_________P___ EP021985 15.4725 -107.872 HU 87 2 15.3944 -107.822 4 86 7 276
1985158N10267 1985 41 EP MM BLANCA 1985-06-11 18:00:00 TS 15.4643 -108.181 90 hurdat_epa main 549 549 O_________P___ hurdat_epa EP021985 15.5000 -108.200 HU 90 2 15.3571 -108.123 4 87 6 263
1985158N10267 1985 41 EP MM BLANCA 1985-06-11 21:00:00 TS 15.3790 -108.446 main 571 571 P_________P___ EP021985 15.3999 -108.458 HU 90 2 15.3163 -108.413 4 88 5 252
1985158N10267 1985 41 EP MM BLANCA 1985-06-12 00:00:00 TS 15.3000 -108.700 90 hurdat_epa main 601 601 O_________O___ hurdat_epa EP021985 15.3000 -108.700 HU 90 2 15.3000 -108.700 4 90 5 264
1985158N10267 1985 41 EP MM BLANCA 1985-06-12 03:00:00 TS 15.3265 -108.992 main 623 623 P_________P___ EP021985 15.3200 -108.992 HU 90 2 15.3461 -108.992 4 90 6 280
1985158N10267 1985 41 EP MM BLANCA 1985-06-12 06:00:00 TS 15.4049 -109.296 90 hurdat_epa main 639 638 O_________P___ hurdat_epa EP021985 15.4000 -109.300 HU 90 2 15.4197 -109.285 4 90 6 287
1985158N10267 1985 41 EP MM BLANCA 1985-06-12 09:00:00 TS 15.5021 -109.591 main 654 654 P_________P___ EP021985 15.4999 -109.592 HU 90 2 15.5085 -109.586 4 90 6 289
1985158N10267 1985 41 EP MM BLANCA 1985-06-12 12:00:00 TS 15.6000 -109.900 90 hurdat_epa main 669 669 O_________O___ hurdat_epa EP021985 15.6000 -109.900 HU 90 2 15.6000 -109.900 4 90 6 284
1985158N10267 1985 41 EP MM BLANCA 1985-06-12 15:00:00 TS 15.6562 -110.240 main 685 685 P_________P___ EP021985 15.6500 -110.243 HU 90 2 15.6749 -110.232 4 90 7 280
1985158N10267 1985 41 EP MM BLANCA 1985-06-12 18:00:00 TS 15.7125 -110.594 90 hurdat_epa main 717 717 O_________P___ hurdat_epa EP021985 15.7000 -110.600 HU 90 2 15.7498 -110.578 4 90 7 283
1985158N10267 1985 41 EP MM BLANCA 1985-06-12 21:00:00 TS 15.8061 -110.941 main 736 736 P_________P___ EP021985 15.7999 -110.942 HU 90 2 15.8249 -110.935 4 90 7 285
1985158N10267 1985 41 EP MM BLANCA 1985-06-13 00:00:00 TS 15.9000 -111.300 90 hurdat_epa main 764 764 O_________O___ hurdat_epa EP021985 15.9000 -111.300 HU 90 2 15.9000 -111.300 4 90 7 282
1985158N10267 1985 41 EP MM BLANCA 1985-06-13 03:00:00 TS 15.9562 -111.689 main 792 792 P_________P___ EP021985 15.9500 -111.700 HU 95 2 15.9747 -111.656 4 92 8 279
1985158N10267 1985 41 EP MM BLANCA 1985-06-13 06:00:00 TS 16.0124 -112.080 100 hurdat_epa main 802 794 O_________P___ hurdat_epa EP021985 16.0000 -112.100 HU 100 3 16.0496 -112.020 4 95 7 282
1985158N10267 1985 41 EP MM BLANCA 1985-06-13 09:00:00 TS 16.1060 -112.432 main 801 797 P_________P___ EP021985 16.0998 -112.442 HU 100 3 16.1246 -112.400 4 97 7 285
1985158N10267 1985 41 EP MM BLANCA 1985-06-13 12:00:00 TS 16.2000 -112.800 100 hurdat_epa main 804 804 O_________O___ hurdat_epa EP021985 16.2000 -112.800 HU 100 3 16.2000 -112.800 4 100 8 281
1985158N10267 1985 41 EP MM BLANCA 1985-06-13 15:00:00 TS 16.2572 -113.233 main 810 810 P_________P___ EP021985 16.2500 -113.235 HU 100 3 16.2790 -113.228 4 101 9 278
1985158N10267 1985 41 EP MM BLANCA 1985-06-13 18:00:00 TS 16.3143 -113.694 100 hurdat_epa main 833 833 O_________P___ hurdat_epa EP021985 16.3000 -113.700 HU 100 3 16.3574 -113.678 4 102 9 280
1985158N10267 1985 41 EP MM BLANCA 1985-06-13 21:00:00 TS 16.4079 -114.147 main 844 844 P_________P___ EP021985 16.3999 -114.150 HU 102 3 16.4321 -114.138 4 103 9 282
1985158N10267 1985 41 EP MM BLANCA 1985-06-14 00:00:00 TS 16.5000 -114.600 105 hurdat_epa main 862 862 O_________O___ hurdat_epa EP021985 16.5000 -114.600 HU 105 3 16.5000 -114.600 4 105 9 280
1985158N10267 1985 41 EP MM BLANCA 1985-06-14 03:00:00 TS 16.5572 -115.047 main 877 877 P_________P___ EP021985 16.5574 -115.050 HU 102 3 16.5567 -115.038 4 101 9 277
1985158N10267 1985 41 EP MM BLANCA 1985-06-14 06:00:00 TS 16.6017 -115.494 100 hurdat_epa main 909 909 O_________P___ hurdat_epa EP021985 16.6000 -115.500 HU 100 3 16.6068 -115.478 4 97 9 276
1985158N10267 1985 41 EP MM BLANCA 1985-06-14 09:00:00 TS 16.6508 -115.939 main 928 928 P_________P___ EP021985 16.6499 -115.943 HU 95 2 16.6535 -115.929 4 93 9 276
1985158N10267 1985 41 EP MM BLANCA 1985-06-14 12:00:00 TS 16.7000 -116.400 90 hurdat_epa main 963 963 O_________O___ hurdat_epa EP021985 16.7000 -116.400 HU 90 2 16.7000 -116.400 4 90 9 276
1985158N10267 1985 41 EP MM BLANCA 1985-06-14 15:00:00 TS 16.7499 -116.892 main 1000 992 P_________P___ EP021985 16.7499 -116.885 HU 87 2 16.7500 -116.912 4 87 10 276
1985158N10267 1985 41 EP MM BLANCA 1985-06-14 18:00:00 TS 16.8000 -117.411 85 hurdat_epa main 1031 1031 O_________P___ hurdat_epa EP021985 16.8000 -117.400 HU 85 2 16.8000 -117.443 4 85 10 276
1985158N10267 1985 41 EP MM BLANCA 1985-06-14 21:00:00 TS 16.8500 -117.957 main 1075 1065 P_________P___ EP021985 16.8500 -117.950 HU 82 1 16.8500 -117.977 4 82 10 275
1985158N10267 1985 41 EP MM BLANCA 1985-06-15 00:00:00 TS 16.9000 -118.500 80 hurdat_epa main 1096 1096 O_________O___ hurdat_epa EP021985 16.9000 -118.500 HU 80 1 16.9000 -118.500 4 80 10 276
1985158N10267 1985 41 EP MM BLANCA 1985-06-15 03:00:00 TS 16.9518 -119.011 main 1119 1119 P_________P___ EP021985 16.9499 -119.015 HU 77 1 16.9577 -118.997 4 76 10 276
1985158N10267 1985 41 EP MM BLANCA 1985-06-15 06:00:00 TS 17.0036 -119.495 75 hurdat_epa main 1153 1153 O_________P___ hurdat_epa EP021985 17.0000 -119.500 HU 75 1 17.0145 -119.480 4 72 9 277
1985158N10267 1985 41 EP MM BLANCA 1985-06-15 09:00:00 TS 17.0590 -119.949 main 1173 1173 P_________P___ EP021985 17.0573 -119.950 HU 70 1 17.0641 -119.947 4 68 9 276
1985158N10267 1985 41 EP MM BLANCA 1985-06-15 12:00:00 TS 17.1000 -120.400 65 hurdat_epa main 1209 1209 O_________O___ hurdat_epa EP021985 17.1000 -120.400 HU 65 1 17.1000 -120.400 4 65 9 273
1985158N10267 1985 41 EP MM BLANCA 1985-06-15 15:00:00 TS 17.1082 -120.901 main 1247 1247 P_________P___ EP021985 17.1076 -120.915 HU 62 0 17.1102 -120.860 4 63 9 270
1985158N10267 1985 41 EP MM BLANCA 1985-06-15 18:00:00 TS 17.1018 -121.376 60 hurdat_epa main 1285 1285 O_________P___ hurdat_epa EP021985 17.1000 -121.400 TS 60 0 17.1074 -121.303 4 62 8 269
1985158N10267 1985 41 EP MM BLANCA 1985-06-15 21:00:00 TS 17.0945 -121.765 main 1316 1316 P_________P___ EP021985 17.0923 -121.780 TS 60 0 17.1009 -121.719 4 61 7 270
1985158N10267 1985 41 EP MM BLANCA 1985-06-16 00:00:00 TS 17.1000 -122.100 60 hurdat_epa main 1339 1339 O_________O___ hurdat_epa EP021985 17.1000 -122.100 TS 60 0 17.1000 -122.100 2 60 6 274
1985158N10267 1985 41 EP MM BLANCA 1985-06-16 03:00:00 TS 17.1433 -122.417 main 1363 1363 P_________P___ EP021985 17.1499 -122.407 TS 55 0 17.1234 -122.445 2 52 6 279
1985158N10267 1985 41 EP MM BLANCA 1985-06-16 06:00:00 TS 17.1883 -122.714 50 hurdat_epa main 1380 1380 O_________P___ hurdat_epa EP021985 17.2000 -122.700 TS 50 0 17.1530 -122.754 2 45 6 276
1985158N10267 1985 41 EP MM BLANCA 1985-06-16 09:00:00 TS 17.2009 -123.015 main 1405 1405 P_________P___ EP021985 17.2075 -123.008 TS 40 0 17.1812 -123.037 2 37 6 271
1985158N10267 1985 41 EP MM BLANCA 1985-06-16 12:00:00 TS 17.2000 -123.300 30 hurdat_epa main 1430 1430 O_________O___ hurdat_epa EP021985 17.2000 -123.300 TD 30 -1 17.2000 -123.300 1 30 5 270
1985158N10267 1985 41 EP MM BLANCA 1985-06-16 15:00:00 TS 17.1992 -123.558 main 1455 1455 P_________P___ EP021985 17.1975 -123.560 TD 27 -1 17.2044 -123.553 1 27 5 270
1985158N10267 1985 41 EP MM BLANCA 1985-06-16 18:00:00 TS 17.2000 -123.800 25 hurdat_epa main 1472 O_________O___ hurdat_epa EP021985 17.2000 -123.800 TD 25 -1 17.2000 -123.800 1 25 5 270

IBTrACS Databaseについて

本データベースは、米国NOAAが公開する1842年以降の世界の熱帯低気圧のベストトラックデータアーカイブInternational Best Track Archive for Climate Stewardship (IBTrACS)を、ウェブで閲覧しやすい形式に変換したものです。

最終更新日:2021-12-03